Time;durP1;ratioP1;P1;durP2;ratioP2;P2;SDS_P1;SDS_P2;PMS_P1;PMS_P2;Temp;Humidity;BMP_temperature;BMP_pressure;BME280_temperature;BME280_humidity;BME280_pressure;Samples;Min_cycle;Max_cycle;Signal;HPM_P1;HPM_P2
2023/08/24 00:02:06;;;;;;;4.88;1.92;;;24.60;85.00;;;;;;5053275;28;20049;-61
2023/08/24 00:04:33;;;;;;;3.85;1.80;;;24.70;85.10;;;;;;5019375;28;20049;-61
2023/08/24 00:06:59;;;;;;;3.45;1.98;;;24.50;84.90;;;;;;5024514;28;20045;-62
2023/08/24 00:09:26;;;;;;;4.93;1.90;;;24.60;84.90;;;;;;5033560;28;20056;-62
2023/08/24 00:11:52;;;;;;;5.97;2.25;;;24.60;85.20;;;;;;5051770;28;20114;-67
2023/08/24 00:14:17;;;;;;;4.15;1.85;;;24.40;84.90;;;;;;5051509;28;20501;-62
2023/08/24 00:16:43;;;;;;;4.60;1.88;;;24.60;84.80;;;;;;5053221;28;20041;-62
2023/08/24 00:19:09;;;;;;;3.72;2.10;;;24.60;85.00;;;;;;5034700;28;20041;-63
2023/08/24 00:21:34;;;;;;;4.03;2.00;;;24.70;85.10;;;;;;5033024;28;20054;-63
2023/08/24 00:24:00;;;;;;;5.57;2.08;;;24.40;84.80;;;;;;5034788;28;20079;-63
2023/08/24 00:26:26;;;;;;;4.18;1.90;;;24.60;85.00;;;;;;5033254;28;20507;-62
2023/08/24 00:28:52;;;;;;;4.07;2.03;;;24.60;84.90;;;;;;5032938;28;20054;-63
2023/08/24 00:31:17;;;;;;;5.60;2.10;;;24.40;84.90;;;;;;5048553;28;20070;-62
2023/08/24 00:33:43;;;;;;;3.75;1.92;;;24.80;85.10;;;;;;5054194;28;20049;-67
2023/08/24 00:36:09;;;;;;;5.47;2.10;;;24.20;84.80;;;;;;5054315;28;20482;-66
2023/08/24 00:38:35;;;;;;;5.00;1.98;;;24.50;85.00;;;;;;5053819;28;20426;-69
2023/08/24 00:41:00;;;;;;;3.60;1.88;;;24.60;85.00;;;;;;5059194;28;20203;-64
2023/08/24 00:43:27;;;;;;;4.25;1.80;;;24.40;84.70;;;;;;5064513;28;20056;-62
2023/08/24 00:45:55;;;;;;;4.28;2.20;;;24.30;84.90;;;;;;5053723;28;20052;-73
2023/08/24 00:48:25;;;;;;;4.18;2.00;;;24.60;85.30;;;;;;5043736;28;20432;-62
2023/08/24 00:50:52;;;;;;;4.70;2.05;;;24.20;84.80;;;;;;5072289;28;20107;-61
2023/08/24 00:53:18;;;;;;;5.63;2.40;;;24.40;88.40;;;;;;5072393;28;20064;-62
2023/08/24 00:55:44;;;;;;;3.65;1.92;;;24.40;85.00;;;;;;5072195;28;20060;-62
2023/08/24 00:58:10;;;;;;;4.72;2.35;;;24.40;84.90;;;;;;5069407;28;20040;-63
2023/08/24 01:00:36;;;;;;;3.78;2.00;;;24.40;84.90;;;;;;5056224;28;20475;-63
2023/08/24 01:03:02;;;;;;;4.28;2.00;;;24.40;84.90;;;;;;5069770;28;20048;-63
2023/08/24 01:05:28;;;;;;;4.68;2.20;;;24.50;84.70;;;;;;5056550;28;20073;-62
2023/08/24 01:07:54;;;;;;;3.63;1.90;;;24.40;84.90;;;;;;5089475;28;20047;-66
2023/08/24 01:10:20;;;;;;;4.53;1.90;;;24.30;84.80;;;;;;5058714;28;20067;-63
2023/08/24 01:13:09;;;;;;;3.78;2.22;;;24.30;84.90;;;;;;5075087;28;20037;-64
2023/08/24 01:15:57;;;;;;;5.03;2.33;;;24.20;84.00;;;;;;5061225;28;20055;-64
2023/08/24 01:18:23;;;;;;;3.90;2.38;;;24.30;83.70;;;;;;5053680;28;20048;-62
2023/08/24 01:20:48;;;;;;;4.68;2.40;;;24.40;84.90;;;;;;5073051;28;20044;-63
2023/08/24 01:23:18;;;;;;;4.18;2.42;;;24.20;84.80;;;;;;5056839;28;20049;-63
2023/08/24 01:26:12;;;;;;;6.43;2.20;;;24.40;85.10;;;;;;5069023;28;20076;-62
2023/08/24 01:28:38;;;;;;;4.30;2.30;;;24.40;84.00;;;;;;5066852;28;20040;-62
2023/08/24 01:31:07;;;;;;;3.72;2.05;;;24.30;88.20;;;;;;5046031;28;20037;-63
2023/08/24 01:33:33;;;;;;;4.95;2.63;;;24.30;85.20;;;;;;5058673;28;20351;-62
2023/08/24 01:35:59;;;;;;;5.07;2.63;;;24.40;84.90;;;;;;5039016;28;20052;-63
2023/08/24 01:38:25;;;;;;;4.90;2.10;;;24.50;85.00;;;;;;5054474;28;20048;-62
2023/08/24 01:41:09;;;;;;;4.90;2.10;;;24.30;85.00;;;;;;5023020;28;20047;-62
2023/08/24 01:43:35;;;;;;;4.40;2.15;;;24.30;85.10;;;;;;5086854;28;20148;-63
2023/08/24 01:46:04;;;;;;;4.47;2.15;;;24.20;84.90;;;;;;5042893;28;20050;-64
2023/08/24 01:48:31;;;;;;;4.32;2.47;;;24.10;85.00;;;;;;5080175;28;20438;-63
2023/08/24 01:50:57;;;;;;;4.47;2.33;;;24.40;85.00;;;;;;5054878;28;20376;-63
2023/08/24 01:53:23;;;;;;;5.25;2.17;;;24.30;85.00;;;;;;5050809;28;20054;-62
2023/08/24 01:55:49;;;;;;;5.15;2.45;;;24.20;84.80;;;;;;5048602;28;20123;-62
2023/08/24 01:58:15;;;;;;;3.17;1.92;;;24.30;84.90;;;;;;5035378;28;20087;-62
2023/08/24 02:00:41;;;;;;;3.60;1.85;;;24.10;84.80;;;;;;5047584;28;20152;-62
2023/08/24 02:03:07;;;;;;;4.68;2.20;;;24.50;84.90;;;;;;5078333;28;20091;-63
2023/08/24 02:05:32;;;;;;;2.83;1.90;;;24.30;84.80;;;;;;5088286;28;20079;-62
2023/08/24 02:07:59;;;;;;;5.63;2.67;;;24.30;84.80;;;;;;5036941;28;20494;-63
2023/08/24 02:10:25;;;;;;;4.20;2.45;;;24.00;84.80;;;;;;5034669;28;20064;-63
2023/08/24 02:12:51;;;;;;;4.40;2.38;;;24.30;85.00;;;;;;5058665;28;20431;-61
2023/08/24 02:15:17;;;;;;;5.53;2.40;;;24.10;84.70;;;;;;5029858;28;20042;-62
2023/08/24 02:17:44;;;;;;;6.18;2.58;;;24.30;85.00;;;;;;5036122;28;20102;-66
2023/08/24 02:20:11;;;;;;;3.38;2.20;;;24.20;84.80;;;;;;5054661;28;20072;-63
2023/08/24 02:22:37;;;;;;;5.53;2.55;;;24.40;84.80;;;;;;5054267;28;20824;-62
2023/08/24 02:25:05;;;;;;;8.07;2.53;;;24.10;85.10;;;;;;5057674;28;20130;-63
2023/08/24 02:27:34;;;;;;;5.03;2.40;;;24.30;85.00;;;;;;5035217;28;20092;-62
2023/08/24 02:30:00;;;;;;;5.10;2.45;;;24.30;85.20;;;;;;5043654;28;20128;-62
2023/08/24 02:32:26;;;;;;;4.22;2.40;;;24.30;85.10;;;;;;5034083;28;20053;-62
2023/08/24 02:34:51;;;;;;;4.85;2.33;;;24.30;85.00;;;;;;5058158;28;20052;-63
2023/08/24 02:37:17;;;;;;;4.20;2.10;;;24.10;84.90;;;;;;5066985;28;20074;-62
2023/08/24 02:39:43;;;;;;;4.05;2.20;;;24.10;85.10;;;;;;5054282;28;20053;-62
2023/08/24 02:42:09;;;;;;;6.40;2.22;;;24.20;85.10;;;;;;5071985;28;20063;-62
2023/08/24 02:44:35;;;;;;;5.68;2.08;;;24.20;85.00;;;;;;5055172;28;20115;-62
2023/08/24 02:47:01;;;;;;;3.83;2.03;;;24.20;85.10;;;;;;5067196;28;20121;-63
2023/08/24 02:49:26;;;;;;;5.00;2.20;;;24.10;88.50;;;;;;5069549;28;20120;-62
2023/08/24 02:51:52;;;;;;;7.10;2.10;;;24.40;85.20;;;;;;5051819;28;20052;-62
2023/08/24 02:54:18;;;;;;;3.80;2.00;;;24.00;84.90;;;;;;5051591;28;20072;-62
2023/08/24 02:56:44;;;;;;;4.20;2.10;;;24.40;85.10;;;;;;5071399;28;20102;-62
2023/08/24 02:59:09;;;;;;;5.05;2.38;;;24.10;85.00;;;;;;5058471;28;20063;-61
2023/08/24 03:01:38;;;;;;;4.03;2.10;;;24.30;85.10;;;;;;5051798;28;20041;-62
2023/08/24 03:04:05;;;;;;;5.07;2.22;;;24.00;84.90;;;;;;5057214;28;20134;-62
2023/08/24 03:06:30;;;;;;;3.67;1.75;;;24.10;85.10;;;;;;5070767;28;20048;-63
2023/08/24 03:08:56;;;;;;;3.83;1.92;;;24.10;85.00;;;;;;5058202;28;20036;-63
2023/08/24 03:11:22;;;;;;;4.15;2.20;;;24.20;85.20;;;;;;5052205;28;20040;-62
2023/08/24 03:13:48;;;;;;;4.80;2.10;;;24.10;85.00;;;;;;5051648;28;20041;-63
2023/08/24 03:16:13;;;;;;;4.57;2.45;;;24.00;85.00;;;;;;5059133;28;20053;-62
2023/08/24 03:18:39;;;;;;;6.43;2.53;;;24.10;85.10;;;;;;5071725;28;20040;-65
2023/08/24 03:21:06;;;;;;;5.55;2.67;;;24.00;85.10;;;;;;5046080;28;20052;-64
2023/08/24 03:23:32;;;;;;;3.97;2.17;;;24.10;85.20;;;;;;5034263;28;20174;-62
2023/08/24 03:25:58;;;;;;;4.88;2.42;;;24.20;85.10;;;;;;5053034;28;20526;-62
2023/08/24 03:28:23;;;;;;;5.10;2.30;;;24.20;85.20;;;;;;5070309;28;20052;-63
2023/08/24 03:30:51;;;;;;;5.20;2.20;;;24.10;85.20;;;;;;5043478;28;20040;-62
2023/08/24 03:33:16;;;;;;;5.80;2.55;;;24.10;85.50;;;;;;5054336;28;20079;-62
2023/08/24 03:35:42;;;;;;;6.10;2.20;;;24.10;85.20;;;;;;5071464;28;20110;-62
2023/08/24 03:38:08;;;;;;;3.88;2.20;;;24.30;85.30;;;;;;5054556;28;20088;-62
2023/08/24 03:40:34;;;;;;;6.15;2.60;;;24.10;85.30;;;;;;5003793;28;20063;-64
2023/08/24 03:43:02;;;;;;;5.03;2.20;;;24.00;85.20;;;;;;5034659;28;20848;-63
2023/08/24 03:45:27;;;;;;;5.50;2.70;;;24.10;85.40;;;;;;5041176;28;20059;-61
2023/08/24 03:47:53;;;;;;;6.07;2.38;;;24.20;85.30;;;;;;5050697;28;20040;-61
2023/08/24 03:50:19;;;;;;;4.70;2.35;;;24.20;85.20;;;;;;5053787;28;20053;-62
2023/08/24 03:52:45;;;;;;;3.85;2.15;;;24.30;85.30;;;;;;5053447;28;20494;-63
2023/08/24 03:55:11;;;;;;;5.05;2.20;;;24.20;85.30;;;;;;5046029;28;20041;-62
2023/08/24 03:57:37;;;;;;;5.30;2.33;;;24.30;85.30;;;;;;5049799;28;20150;-64
2023/08/24 04:00:11;;;;;;;3.60;2.10;;;24.10;85.40;;;;;;5048126;28;20041;-62
2023/08/24 04:02:38;;;;;;;4.53;2.20;;;23.90;85.00;;;;;;5054684;28;20111;-63
2023/08/24 04:05:04;;;;;;;5.40;2.58;;;24.00;85.40;;;;;;5045821;28;20041;-62
2023/08/24 04:07:31;;;;;;;4.70;2.40;;;24.00;85.10;;;;;;5034631;28;20494;-62
2023/08/24 04:09:56;;;;;;;4.82;2.22;;;24.00;85.20;;;;;;5035444;28;20077;-63
2023/08/24 04:12:22;;;;;;;6.18;2.40;;;24.00;85.10;;;;;;5045483;28;20087;-62
2023/08/24 04:14:48;;;;;;;5.13;2.50;;;24.10;85.10;;;;;;5035680;28;20046;-63
2023/08/24 04:17:14;;;;;;;5.00;2.30;;;24.20;85.40;;;;;;5047783;28;20041;-62
2023/08/24 04:19:40;;;;;;;5.03;2.00;;;24.00;85.20;;;;;;5053546;28;20045;-62
2023/08/24 04:22:06;;;;;;;3.83;1.73;;;24.10;88.60;;;;;;5052033;28;20044;-61
2023/08/24 04:24:31;;;;;;;5.97;2.05;;;24.00;85.20;;;;;;5053177;28;20041;-62
2023/08/24 04:26:57;;;;;;;5.43;2.15;;;24.20;85.40;;;;;;5044519;28;20517;-63
2023/08/24 04:29:23;;;;;;;7.13;2.30;;;24.20;88.90;;;;;;5041526;28;20086;-66
2023/08/24 04:31:48;;;;;;;5.63;1.98;;;24.00;85.30;;;;;;5052465;28;20041;-62
2023/08/24 04:34:14;;;;;;;4.38;2.20;;;23.70;85.20;;;;;;5051918;28;20033;-61
2023/08/24 04:36:40;;;;;;;4.35;1.95;;;24.00;85.30;;;;;;5050852;28;20029;-62
2023/08/24 04:39:06;;;;;;;4.90;2.05;;;24.00;85.30;;;;;;5049362;28;20422;-61
2023/08/24 04:41:31;;;;;;;4.70;2.10;;;24.00;85.30;;;;;;5048537;28;20118;-64
2023/08/24 04:43:57;;;;;;;5.38;2.22;;;23.50;88.70;;;;;;5051426;28;20163;-61
2023/08/24 04:46:23;;;;;;;4.47;2.13;;;24.10;85.50;;;;;;5034400;28;20411;-62
2023/08/24 04:48:49;;;;;;;4.38;1.83;;;23.90;85.40;;;;;;5048103;28;20048;-61
2023/08/24 04:51:15;;;;;;;4.70;2.28;;;24.00;85.40;;;;;;5054024;28;20049;-63
2023/08/24 04:53:40;;;;;;;4.65;2.50;;;24.30;85.60;;;;;;5053917;28;20048;-62
2023/08/24 04:56:06;;;;;;;6.13;2.45;;;23.80;85.40;;;;;;5052553;28;20045;-62
2023/08/24 04:58:33;;;;;;;4.32;2.00;;;24.20;85.40;;;;;;5051436;28;20459;-63
2023/08/24 05:00:59;;;;;;;3.90;2.00;;;24.20;85.40;;;;;;5039239;28;20427;-63
2023/08/24 05:03:26;;;;;;;4.30;2.00;;;24.00;85.50;;;;;;5044944;28;20055;-62
2023/08/24 05:05:51;;;;;;;5.35;2.30;;;24.00;85.50;;;;;;5052114;28;20120;-62
2023/08/24 05:08:17;;;;;;;4.75;2.42;;;23.90;85.50;;;;;;5046166;28;20128;-63
2023/08/24 05:10:43;;;;;;;4.18;2.00;;;24.10;88.90;;;;;;5033400;28;20037;-65
2023/08/24 05:13:09;;;;;;;4.03;2.22;;;23.90;85.50;;;;;;5032129;28;20079;-65
2023/08/24 05:15:35;;;;;;;4.75;2.13;;;24.20;85.50;;;;;;5039117;28;20049;-65
2023/08/24 05:18:01;;;;;;;5.20;2.25;;;24.20;85.50;;;;;;5052239;28;20049;-64
2023/08/24 05:20:26;;;;;;;4.75;2.35;;;24.20;85.50;;;;;;5037114;28;20049;-63
2023/08/24 05:22:54;;;;;;;4.97;2.60;;;24.10;85.40;;;;;;5034804;28;20132;-63
2023/08/24 05:25:21;;;;;;;6.18;3.05;;;24.10;85.50;;;;;;5051558;28;20068;-65
2023/08/24 05:27:47;;;;;;;4.38;2.20;;;24.10;85.50;;;;;;5033418;28;20051;-65
2023/08/24 05:30:13;;;;;;;5.47;2.40;;;24.10;85.20;;;;;;5048626;28;20041;-69
2023/08/24 05:32:38;;;;;;;6.05;2.60;;;24.10;85.20;;;;;;5049391;28;20501;-65
2023/08/24 05:35:08;;;;;;;6.25;2.90;;;24.20;85.20;;;;;;5050917;28;20037;-66
2023/08/24 05:37:34;;;;;;;5.03;2.63;;;24.40;85.20;;;;;;5049985;28;20086;-65
2023/08/24 05:40:00;;;;;;;4.13;2.20;;;24.80;88.70;;;;;;5048260;28;20044;-64
2023/08/24 05:42:26;;;;;;;5.07;2.13;;;24.60;88.20;;;;;;5046475;28;20049;-69
2023/08/24 05:44:52;;;;;;;5.35;2.42;;;24.40;84.80;;;;;;5051985;28;20048;-62
2023/08/24 05:47:18;;;;;;;4.30;2.10;;;24.30;84.50;;;;;;5051094;28;20522;-63
2023/08/24 05:49:44;;;;;;;5.53;2.30;;;24.60;84.60;;;;;;5052057;28;20056;-66
2023/08/24 05:52:10;;;;;;;3.92;2.00;;;24.60;84.40;;;;;;5048505;28;20049;-66
2023/08/24 05:54:38;;;;;;;4.60;2.00;;;24.60;84.90;;;;;;5047898;28;20048;-68
2023/08/24 05:57:05;;;;;;;3.25;1.60;;;24.80;84.50;;;;;;5050984;28;20080;-63
2023/08/24 05:59:32;;;;;;;4.88;2.13;;;24.80;84.20;;;;;;5052697;28;20037;-76
2023/08/24 06:01:58;;;;;;;6.00;2.60;;;24.80;84.40;;;;;;5051093;28;20053;-76
2023/08/24 06:04:23;;;;;;;5.65;2.58;;;25.10;84.60;;;;;;5048671;28;20047;-72
2023/08/24 06:06:49;;;;;;;6.45;2.10;;;24.90;84.20;;;;;;5050075;28;20045;-62
2023/08/24 06:09:15;;;;;;;7.38;2.75;;;24.80;84.00;;;;;;5051323;28;20087;-72
2023/08/24 06:11:40;;;;;;;3.47;1.92;;;24.90;84.20;;;;;;5051140;28;20103;-76
2023/08/24 06:14:06;;;;;;;5.88;2.25;;;25.00;84.20;;;;;;5047293;28;20283;-63
2023/08/24 06:16:32;;;;;;;4.78;2.20;;;24.80;84.00;;;;;;5049736;28;20055;-62
2023/08/24 06:18:58;;;;;;;5.95;2.10;;;24.90;84.00;;;;;;5033957;28;20045;-64
2023/08/24 06:21:24;;;;;;;5.25;2.60;;;24.80;84.10;;;;;;5050556;28;20090;-75
2023/08/24 06:23:49;;;;;;;6.55;2.35;;;24.70;84.00;;;;;;5040583;28;20143;-73
2023/08/24 06:26:16;;;;;;;6.57;1.80;;;24.90;84.10;;;;;;5049511;28;20115;-75
2023/08/24 06:28:42;;;;;;;5.18;1.90;;;24.80;84.40;;;;;;5030557;28;20052;-64
2023/08/24 06:31:08;;;;;;;5.97;2.35;;;24.90;84.20;;;;;;5048917;28;20053;-66
2023/08/24 06:33:34;;;;;;;4.50;1.92;;;24.70;83.90;;;;;;5046425;28;20041;-63
2023/08/24 06:36:00;;;;;;;5.28;2.10;;;24.90;84.20;;;;;;5050636;28;20112;-73
2023/08/24 06:38:26;;;;;;;3.67;1.98;;;24.70;83.80;;;;;;5045885;28;20604;-64
2023/08/24 06:40:51;;;;;;;5.30;2.40;;;24.80;83.80;;;;;;5050425;28;20132;-69
2023/08/24 06:43:17;;;;;;;3.67;2.10;;;25.10;83.80;;;;;;5049016;28;20087;-69
2023/08/24 06:45:44;;;;;;;4.95;2.03;;;24.80;83.70;;;;;;5045167;28;20127;-75
2023/08/24 06:48:10;;;;;;;5.07;1.98;;;25.10;83.80;;;;;;5045681;28;20514;-70
2023/08/24 06:50:36;;;;;;;4.32;2.15;;;25.00;83.60;;;;;;5032821;28;20049;-76
2023/08/24 06:53:05;;;;;;;4.13;2.20;;;25.00;83.50;;;;;;5033574;28;20056;-75
2023/08/24 06:55:31;;;;;;;5.32;2.08;;;25.10;81.90;;;;;;5045301;28;20080;-67
2023/08/24 06:57:57;;;;;;;6.18;2.38;;;25.10;82.90;;;;;;5051086;28;20149;-63
2023/08/24 07:00:23;;;;;;;4.97;1.98;;;25.40;82.90;;;;;;5050955;28;20045;-65
2023/08/24 07:02:51;;;;;;;5.38;2.10;;;25.30;82.60;;;;;;5049219;28;20044;-67
2023/08/24 07:05:20;;;;;;;4.88;1.70;;;25.30;82.50;;;;;;5046727;28;20076;-73
2023/08/24 07:07:47;;;;;;;3.90;1.80;;;25.70;81.60;;;;;;5038967;28;20049;-75
2023/08/24 07:10:13;;;;;;;4.35;1.83;;;25.70;82.50;;;;;;5046443;28;20045;-72
2023/08/24 07:12:41;;;;;;;4.47;1.67;;;25.50;82.20;;;;;;5050020;28;20061;-73
2023/08/24 07:15:08;;;;;;;4.55;2.05;;;26.20;81.50;;;;;;5047755;28;20082;-69
2023/08/24 07:17:34;;;;;;;5.65;2.10;;;25.80;81.70;;;;;;5052899;28;20048;-68
2023/08/24 07:19:59;;;;;;;4.03;1.80;;;26.00;81.60;;;;;;5048722;28;20045;-66
2023/08/24 07:22:28;;;;;;;4.00;1.58;;;26.20;81.40;;;;;;5048528;28;20041;-68
2023/08/24 07:24:54;;;;;;;5.25;1.90;;;26.20;80.50;;;;;;5050475;28;20102;-68
2023/08/24 07:27:20;;;;;;;4.75;1.60;;;26.30;81.20;;;;;;5045522;28;20044;-75
2023/08/24 07:29:46;;;;;;;4.85;1.70;;;26.40;80.90;;;;;;5050821;28;20340;-69
2023/08/24 07:32:11;;;;;;;5.30;2.20;;;26.60;81.00;;;;;;5053669;28;20455;-68
2023/08/24 07:34:37;;;;;;;5.30;1.70;;;26.80;81.10;;;;;;5054517;28;20037;-72
2023/08/24 07:37:03;;;;;;;6.68;2.25;;;26.80;80.90;;;;;;5034228;28;20083;-70
2023/08/24 07:39:29;;;;;;;4.93;1.70;;;26.80;80.70;;;;;;5052569;28;20056;-72
2023/08/24 07:41:55;;;;;;;3.60;1.58;;;26.80;80.70;;;;;;5050536;28;20050;-72
2023/08/24 07:44:21;;;;;;;4.40;1.45;;;26.80;80.30;;;;;;5056825;28;20056;-68
2023/08/24 07:46:50;;;;;;;3.88;1.73;;;27.00;80.70;;;;;;5056192;28;20052;-64
2023/08/24 07:49:15;;;;;;;4.35;1.75;;;27.00;80.60;;;;;;5022246;28;20121;-63
2023/08/24 07:51:42;;;;;;;6.75;1.92;;;26.90;80.10;;;;;;5071992;28;20040;-71
2023/08/24 07:54:08;;;;;;;5.40;2.30;;;27.00;80.30;;;;;;5054376;28;20049;-66
2023/08/24 07:56:35;;;;;;;5.60;1.90;;;27.10;79.80;;;;;;5074275;28;20040;-72
2023/08/24 07:59:01;;;;;;;6.30;2.30;;;27.30;80.20;;;;;;5074488;28;20401;-69
2023/08/24 08:01:27;;;;;;;5.13;2.30;;;27.10;80.00;;;;;;5071044;28;20055;-77
2023/08/24 08:03:52;;;;;;;7.53;2.20;;;27.20;79.70;;;;;;5054851;28;20036;-76
2023/08/24 08:06:21;;;;;;;7.85;3.25;;;27.20;79.50;;;;;;5074205;28;20470;-64
2023/08/24 08:08:50;;;;;;;5.45;2.80;;;27.20;78.90;;;;;;5074259;28;20049;-79
2023/08/24 08:11:16;;;;;;;7.25;2.42;;;27.40;79.70;;;;;;5068968;28;20127;-67
2023/08/24 08:13:41;;;;;;;5.60;2.42;;;27.30;79.20;;;;;;5066960;28;20111;-65
2023/08/24 08:16:07;;;;;;;7.95;3.28;;;27.30;79.30;;;;;;5073478;28;20501;-63
2023/08/24 08:18:34;;;;;;;8.65;2.53;;;27.30;78.90;;;;;;5072778;28;20044;-81
2023/08/24 08:21:00;;;;;;;5.80;2.58;;;27.50;79.60;;;;;;5053450;28;20072;-76
2023/08/24 08:23:25;;;;;;;8.73;3.00;;;27.40;79.00;;;;;;5063417;28;20133;-67
2023/08/24 08:25:51;;;;;;;7.97;2.80;;;25.20;77.30;;;;;;5064234;28;20040;-66
2023/08/24 08:28:17;;;;;;;7.97;3.00;;;27.40;78.80;;;;;;5068700;28;20044;-73
2023/08/24 08:30:44;;;;;;;7.38;2.88;;;27.50;79.40;;;;;;5052690;28;20129;-63
2023/08/24 08:33:10;;;;;;;6.72;2.45;;;27.70;79.10;;;;;;5044456;28;20052;-77
2023/08/24 08:35:37;;;;;;;7.10;2.50;;;27.70;78.80;;;;;;5070122;28;20048;-67
2023/08/24 08:38:03;;;;;;;6.20;2.65;;;27.60;79.00;;;;;;5048965;28;20056;-65
2023/08/24 08:40:30;;;;;;;6.38;2.70;;;27.70;78.60;;;;;;5056170;28;20059;-65
2023/08/24 08:42:59;;;;;;;6.80;2.47;;;27.60;78.70;;;;;;5048105;28;20522;-65
2023/08/24 08:45:26;;;;;;;7.20;2.85;;;27.50;78.30;;;;;;5046518;28;20132;-62
2023/08/24 08:47:52;;;;;;;6.93;2.92;;;27.70;78.70;;;;;;5049929;28;20044;-64
2023/08/24 08:50:18;;;;;;;6.78;2.58;;;27.70;78.80;;;;;;5051684;28;20057;-67
2023/08/24 08:52:44;;;;;;;8.40;3.22;;;27.50;78.30;;;;;;5041028;28;20044;-71
2023/08/24 08:55:11;;;;;;;8.60;3.92;;;27.90;78.80;;;;;;5039050;28;20498;-65
2023/08/24 08:57:36;;;;;;;10.73;3.45;;;27.40;78.20;;;;;;5047967;28;20529;-81
2023/08/24 09:00:03;;;;;;;9.15;3.50;;;27.40;78.00;;;;;;5053523;28;20056;-70
2023/08/24 09:02:29;;;;;;;7.88;4.18;;;27.50;78.20;;;;;;5040978;28;20735;-62
2023/08/24 09:04:54;;;;;;;9.60;4.10;;;27.60;78.10;;;;;;5053419;28;20068;-63
2023/08/24 09:07:20;;;;;;;9.45;4.50;;;27.70;78.20;;;;;;5050269;28;20505;-83
2023/08/24 09:09:46;;;;;;;9.43;4.68;;;27.60;77.90;;;;;;5050686;28;20049;-66
2023/08/24 09:12:12;;;;;;;7.57;3.72;;;27.60;77.80;;;;;;5062434;28;20048;-64
2023/08/24 09:14:38;;;;;;;9.57;3.47;;;27.40;77.60;;;;;;5072882;28;20091;-68
2023/08/24 09:17:03;;;;;;;11.18;4.97;;;27.40;77.80;;;;;;5053809;28;20048;-67
2023/08/24 09:19:30;;;;;;;8.63;4.45;;;27.30;77.80;;;;;;5033880;28;20640;-75
2023/08/24 09:22:00;;;;;;;8.23;4.38;;;26.90;77.80;;;;;;5052003;28;20091;-71
2023/08/24 09:24:32;;;;;;;9.80;4.85;;;27.20;78.50;;;;;;5044057;28;20041;-66
2023/08/24 09:26:58;;;;;;;9.73;4.50;;;27.20;79.00;;;;;;5050901;28;20073;-66
2023/08/24 09:29:24;;;;;;;8.45;4.35;;;27.30;78.80;;;;;;5048884;28;20037;-73
2023/08/24 09:31:50;;;;;;;9.55;4.65;;;26.80;78.30;;;;;;5043882;28;20091;-70
2023/08/24 09:34:20;;;;;;;10.27;5.50;;;27.00;78.80;;;;;;5042375;28;20128;-65
2023/08/24 09:36:46;;;;;;;11.57;4.00;;;27.00;79.00;;;;;;5048834;28;20480;-65
2023/08/24 09:39:13;;;;;;;9.15;4.72;;;26.90;78.90;;;;;;5048643;28;20107;-62
2023/08/24 09:41:39;;;;;;;9.65;6.32;;;26.80;79.00;;;;;;5027132;28;20056;-68
2023/08/24 09:44:05;;;;;;;8.05;4.82;;;26.60;78.80;;;;;;5048968;28;20090;-64
2023/08/24 09:46:31;;;;;;;10.75;5.97;;;26.80;79.40;;;;;;5068559;28;20071;-63
2023/08/24 09:49:00;;;;;;;10.55;6.10;;;26.70;79.40;;;;;;5071203;28;20049;-66
2023/08/24 09:51:28;;;;;;;12.85;6.20;;;26.70;79.70;;;;;;5064077;28;20076;-65
2023/08/24 09:53:57;;;;;;;8.00;4.45;;;26.40;79.70;;;;;;5069157;28;20040;-64
2023/08/24 09:56:25;;;;;;;10.90;5.65;;;26.70;80.20;;;;;;5070108;28;20044;-69
2023/08/24 09:58:51;;;;;;;8.30;5.35;;;26.70;80.40;;;;;;5035912;28;20053;-63
2023/08/24 10:01:17;;;;;;;11.40;5.70;;;26.60;80.50;;;;;;5036053;28;20045;-64
2023/08/24 10:03:42;;;;;;;11.98;6.43;;;26.70;80.40;;;;;;5049557;28;20494;-66
2023/08/24 10:06:08;;;;;;;13.63;7.10;;;26.40;80.40;;;;;;5034805;28;20127;-66
2023/08/24 10:08:39;;;;;;;15.93;6.93;;;26.20;80.40;;;;;;5052303;28;20060;-69
2023/08/24 10:11:06;;;;;;;11.55;6.80;;;26.50;79.60;;;;;;5054470;28;20084;-78
2023/08/24 10:13:33;;;;;;;11.10;7.00;;;26.40;81.20;;;;;;5034609;28;20051;-61
2023/08/24 10:15:59;;;;;;;11.82;6.85;;;26.10;81.10;;;;;;5047428;28;20386;-62
2023/08/24 10:18:26;;;;;;;12.82;7.10;;;26.20;81.10;;;;;;5057964;28;20123;-63
2023/08/24 10:20:52;;;;;;;9.43;6.55;;;26.10;81.70;;;;;;5043311;28;20048;-75
2023/08/24 10:23:18;;;;;;;10.35;7.10;;;25.90;81.60;;;;;;5057225;28;20044;-69
2023/08/24 10:25:45;;;;;;;11.05;6.65;;;25.90;81.80;;;;;;5051355;28;20041;-73
2023/08/24 10:28:11;;;;;;;13.38;7.72;;;26.40;82.60;;;;;;5018451;28;20056;-76
2023/08/24 10:30:37;;;;;;;13.02;7.28;;;25.80;82.30;;;;;;5050608;28;20044;-81
2023/08/24 10:33:04;;;;;;;11.15;6.97;;;26.10;82.70;;;;;;5061008;28;20053;-75
2023/08/24 10:35:29;;;;;;;11.98;7.47;;;26.20;82.70;;;;;;5051937;28;20045;-72
2023/08/24 10:37:57;;;;;;;11.70;7.10;;;25.70;82.50;;;;;;5053738;28;20041;-72
2023/08/24 10:40:39;;;;;;;10.13;6.60;;;25.80;83.00;;;;;;5045871;28;20098;-71
2023/08/24 10:43:05;;;;;;;10.70;6.57;;;25.80;83.70;;;;;;5035607;28;20103;-70
2023/08/24 10:46:01;;;;;;;10.63;6.60;;;25.70;82.60;;;;;;5044045;28;20449;-71
2023/08/24 10:48:28;;;;;;;10.63;6.72;;;25.70;82.40;;;;;;5051798;28;20086;-69
2023/08/24 10:51:25;;;;;;;11.60;6.93;;;25.60;83.50;;;;;;5053769;28;20053;-73
2023/08/24 10:53:53;;;;;;;11.30;7.25;;;25.80;84.80;;;;;;5036352;28;20053;-73
2023/08/24 10:56:19;;;;;;;10.68;7.15;;;25.80;83.80;;;;;;5000491;28;21080;-72
2023/08/24 10:58:45;;;;;;;10.73;7.15;;;25.80;83.70;;;;;;5046488;28;20151;-68
2023/08/24 11:01:17;;;;;;;9.80;7.25;;;25.70;84.00;;;;;;5019843;28;20111;-67
2023/08/24 11:03:51;;;;;;;13.60;7.57;;;25.80;83.00;;;;;;4993140;28;20146;-67
2023/08/24 11:06:24;;;;;;;11.13;6.50;;;25.70;84.60;;;;;;5030587;28;20411;-70
2023/08/24 11:09:14;;;;;;;12.02;7.00;;;25.60;84.70;;;;;;5011022;28;20507;-73
2023/08/24 11:11:41;;;;;;;9.65;7.22;;;25.70;83.50;;;;;;5008114;28;20041;-67
2023/08/24 11:14:25;;;;;;;10.25;7.05;;;25.70;84.50;;;;;;5052999;28;20045;-70
2023/08/24 11:16:51;;;;;;;10.73;6.78;;;25.60;85.10;;;;;;5022586;28;20122;-70
2023/08/24 11:19:17;;;;;;;10.05;6.80;;;25.60;84.70;;;;;;5009285;28;20046;-66
2023/08/24 11:21:44;;;;;;;10.85;7.03;;;25.40;84.90;;;;;;5018952;28;20092;-75
2023/08/24 11:24:11;;;;;;;10.60;6.32;;;25.40;85.10;;;;;;5001344;28;20144;-70
2023/08/24 11:26:42;;;;;;;12.25;6.95;;;25.60;85.20;;;;;;5015049;28;20041;-70
2023/08/24 11:29:08;;;;;;;11.45;6.65;;;25.40;85.40;;;;;;5033157;28;20097;-69
2023/08/24 11:31:34;;;;;;;12.88;6.50;;;25.70;85.10;;;;;;5054971;28;20127;-75
2023/08/24 11:34:00;;;;;;;11.18;7.30;;;25.40;85.10;;;;;;5051594;28;20048;-72
2023/08/24 11:36:27;;;;;;;11.05;6.95;;;25.60;84.80;;;;;;5045058;28;20052;-74
2023/08/24 11:38:56;;;;;;;11.35;6.88;;;25.80;85.00;;;;;;5034761;28;20050;-74
2023/08/24 11:41:22;;;;;;;21.08;7.13;;;25.40;84.80;;;;;;5046755;28;20124;-72
2023/08/24 11:43:50;;;;;;;14.68;7.18;;;25.60;84.30;;;;;;5066987;28;20464;-67
2023/08/24 11:46:19;;;;;;;10.95;6.93;;;25.80;84.70;;;;;;5054830;28;20127;-72
2023/08/24 11:48:45;;;;;;;14.60;6.55;;;25.80;83.10;;;;;;5070862;28;20047;-64
2023/08/24 11:51:12;;;;;;;11.07;6.03;;;25.90;84.40;;;;;;5066677;28;20033;-66
2023/08/24 11:53:39;;;;;;;14.88;7.05;;;25.70;84.60;;;;;;5054809;28;20040;-64
2023/08/24 11:56:05;;;;;;;10.23;6.78;;;25.80;84.40;;;;;;5036715;28;20495;-63
2023/08/24 11:58:31;;;;;;;11.70;6.32;;;25.90;84.40;;;;;;5052796;28;20110;-75
2023/08/24 12:00:57;;;;;;;11.93;6.70;;;26.10;84.40;;;;;;5056882;28;20455;-75
2023/08/24 12:03:23;;;;;;;9.68;5.90;;;26.00;84.50;;;;;;5056189;28;20552;-66
2023/08/24 12:05:49;;;;;;;10.75;7.85;;;25.90;84.40;;;;;;5038782;28;20048;-70
2023/08/24 12:08:14;;;;;;;12.20;6.63;;;25.90;84.40;;;;;;5032752;28;20045;-72
2023/08/24 12:10:43;;;;;;;11.52;6.18;;;25.90;84.30;;;;;;5020219;28;20052;-71
2023/08/24 12:13:10;;;;;;;9.57;6.43;;;26.10;84.60;;;;;;5060036;28;20045;-69
2023/08/24 12:15:36;;;;;;;9.15;6.38;;;25.90;84.20;;;;;;5053248;28;20053;-68
2023/08/24 12:18:11;;;;;;;9.82;5.82;;;26.20;84.50;;;;;;5048580;28;20060;-70
2023/08/24 12:20:37;;;;;;;11.23;6.57;;;26.20;83.00;;;;;;5036239;28;20059;-73
2023/08/24 12:23:03;;;;;;;10.35;6.05;;;26.40;84.10;;;;;;5063771;28;20044;-69
2023/08/24 12:25:29;;;;;;;11.25;6.47;;;26.10;83.80;;;;;;5021996;28;20516;-69
2023/08/24 12:28:11;;;;;;;10.05;6.93;;;26.20;83.80;;;;;;5034038;28;20048;-73
2023/08/24 12:30:47;;;;;;;12.65;7.28;;;26.00;84.30;;;;;;5026608;28;20628;-71
2023/08/24 12:33:26;;;;;;;15.13;6.93;;;26.20;84.00;;;;;;5033202;28;20098;-71
2023/08/24 12:35:53;;;;;;;10.85;6.38;;;26.20;82.30;;;;;;5072554;28;20051;-68
2023/08/24 12:38:18;;;;;;;10.50;6.80;;;26.20;83.60;;;;;;5072349;28;20497;-72
2023/08/24 12:40:44;;;;;;;9.07;6.40;;;26.30;83.50;;;;;;5073789;28;20067;-66
2023/08/24 12:43:10;;;;;;;11.75;7.00;;;26.00;83.00;;;;;;5064239;28;20053;-71
2023/08/24 12:45:37;;;;;;;12.95;6.07;;;26.20;83.10;;;;;;5070015;28;20048;-73